Time;durP1;ratioP1;P1;durP2;ratioP2;P2;SDS_P1;SDS_P2;PMS_P1;PMS_P2;Temp;Humidity;BMP_temperature;BMP_pressure;BME280_temperature;BME280_humidity;BME280_pressure;Samples;Min_cycle;Max_cycle;Signal;HPM_P1;HPM_P2
2023/04/05 04:19:17;;;;;;;15.88;8.55;;;;;;;-1.76;81.01;100612.78;5580352;32;231142;-87
2023/04/05 04:22:25;;;;;;;15.77;8.23;;;;;;;-1.82;81.13;100614.50;5569153;32;33527;-86
2023/04/05 04:25:31;;;;;;;14.25;8.45;;;;;;;-1.79;80.76;100617.09;5568356;32;33491;-85
2023/04/05 04:28:38;;;;;;;14.50;8.57;;;;;;;-1.84;81.54;100613.59;5569475;32;34578;-85
2023/04/05 04:31:48;;;;;;;14.30;8.00;;;;;;;-1.85;82.38;100619.66;5576856;32;35173;-85
2023/04/05 04:34:54;;;;;;;15.75;9.27;;;;;;;-1.82;82.60;100622.28;5574946;32;33813;-85
2023/04/05 04:38:04;;;;;;;14.60;8.73;;;;;;;-1.80;82.21;100613.59;5570392;32;33836;-85
2023/04/05 04:41:10;;;;;;;13.23;8.43;;;;;;;-1.75;82.67;100618.84;5567605;32;34420;-85
2023/04/05 04:44:13;;;;;;;15.00;9.07;;;;;;;-1.68;82.03;100611.94;5567472;32;33665;-85
2023/04/05 04:47:20;;;;;;;15.65;9.65;;;;;;;-1.68;81.73;100615.41;5568234;32;34118;-85
2023/04/05 04:50:23;;;;;;;17.27;9.75;;;;;;;-1.66;81.55;100618.88;5568231;32;34039;-85
2023/04/05 04:53:29;;;;;;;16.10;9.85;;;;;;;-1.63;81.44;100620.63;5567927;32;34189;-85
2023/04/05 04:56:31;;;;;;;13.80;8.32;;;;;;;-1.61;80.98;100628.44;5567619;32;33794;-85
2023/04/05 04:59:35;;;;;;;16.25;9.27;;;;;;;-1.58;81.29;100623.25;5569925;32;33495;-85
2023/04/05 05:02:39;;;;;;;18.17;9.63;;;;;;;-1.55;80.51;100626.72;5570855;32;33718;-85
2023/04/05 05:05:43;;;;;;;20.70;10.05;;;;;;;-1.47;80.30;100624.16;5572096;32;34190;-85
2023/04/05 05:08:46;;;;;;;15.43;9.70;;;;;;;-1.49;80.78;100628.50;5569716;32;34241;-85
2023/04/05 05:11:49;;;;;;;17.87;10.82;;;;;;;-1.44;79.97;100626.78;5569007;32;33935;-89
2023/04/05 05:14:52;;;;;;;17.60;10.35;;;;;;;-1.43;79.91;100623.31;5568997;32;33814;-90
2023/04/05 05:17:57;;;;;;;16.58;10.07;;;;;;;-1.43;79.31;100625.03;5560656;31;34028;-91
2023/04/05 05:21:00;;;;;;;17.00;10.35;;;;;;;-1.31;78.15;100635.50;5568165;32;33734;-90
2023/04/05 05:24:06;;;;;;;17.48;10.48;;;;;;;-1.20;77.79;100627.75;5576615;32;33828;-86
2023/04/05 05:27:09;;;;;;;19.20;10.02;;;;;;;-1.06;77.22;100629.50;5576775;31;34004;-86
2023/04/05 05:30:12;;;;;;;15.10;10.32;;;;;;;-0.99;77.03;100639.94;5573665;32;34174;-86
2023/04/05 05:33:15;;;;;;;14.93;9.07;;;;;;;-0.97;76.72;100640.81;5563392;32;34579;-86
2023/04/05 05:36:18;;;;;;;14.23;9.63;;;;;;;-0.66;75.19;100645.19;5563146;32;34038;-86
2023/04/05 05:39:22;;;;;;;15.15;9.52;;;;;;;-0.44;73.58;100642.62;5566671;32;34513;-86
2023/04/05 05:42:28;;;;;;;15.93;10.38;;;;;;;-0.07;71.43;100642.59;5554645;32;33871;-87
2023/04/05 05:45:31;;;;;;;14.57;8.90;;;;;;;0.12;69.05;100633.00;5553642;32;34538;-87
2023/04/05 05:48:35;;;;;;;14.02;9.43;;;;;;;0.49;67.07;100639.81;5566207;32;34063;-87
2023/04/05 05:51:38;;;;;;;15.43;9.18;;;;;;;0.65;65.11;100639.75;5548288;32;34030;-84
2023/04/05 05:54:40;;;;;;;19.25;10.57;;;;;;;1.32;63.49;100639.38;5569468;32;33624;-85
2023/04/05 05:57:44;;;;;;;14.77;9.32;;;;;;;2.01;60.63;100632.69;5551374;32;33732;-83
2023/04/05 06:00:47;;;;;;;15.88;9.88;;;;;;;2.79;56.21;100630.94;5556551;32;34040;-84
2023/04/05 06:03:53;;;;;;;17.73;9.15;;;;;;;3.77;54.24;100634.69;5564198;32;33685;-84
2023/04/05 06:06:56;;;;;;;13.73;9.43;;;;;;;5.65;47.39;100630.75;5566346;32;32944;-85
2023/04/05 06:09:59;;;;;;;14.18;8.63;;;;;;;6.81;45.34;100631.19;5558067;32;33871;-84
2023/04/05 06:13:02;;;;;;;13.13;8.07;;;;;;;7.74;42.03;100631.78;5551656;32;33913;-84
2023/04/05 06:16:05;;;;;;;10.27;7.28;;;;;;;7.12;41.08;100634.63;5552629;32;33566;-84
2023/04/05 06:19:08;;;;;;;12.80;8.18;;;;;;;8.41;39.05;100629.47;5559736;32;34104;-84
2023/04/05 06:22:11;;;;;;;14.77;8.10;;;;;;;9.05;37.42;100638.53;5532596;32;34190;-84
2023/04/05 06:25:14;;;;;;;13.70;8.00;;;;;;;9.80;37.32;100633.75;5532015;32;33940;-83
2023/04/05 06:28:19;;;;;;;16.33;6.55;;;;;;;9.75;36.40;100633.09;5545820;32;33681;-84
2023/04/05 06:31:30;;;;;;;8.75;5.62;;;;;;;10.78;32.42;100633.94;5548001;32;35046;-84
2023/04/05 06:34:33;;;;;;;6.72;4.85;;;;;;;10.10;33.60;100632.50;5550330;32;33893;-84
2023/04/05 06:37:35;;;;;;;8.55;5.12;;;;;;;10.02;31.93;100632.84;5553983;32;33701;-84
2023/04/05 06:40:38;;;;;;;8.32;5.62;;;;;;;9.93;31.56;100639.41;5563936;32;33564;-85
2023/04/05 06:43:41;;;;;;;6.97;4.68;;;;;;;10.01;31.38;100631.09;5560960;32;34526;-83
2023/04/05 06:46:45;;;;;;;6.78;5.37;;;;;;;8.94;33.07;100643.41;5552380;32;33988;-83
2023/04/05 06:49:48;;;;;;;7.90;4.93;;;;;;;9.28;32.11;100640.31;5558811;32;33832;-84
2023/04/05 06:52:50;;;;;;;6.60;5.00;;;;;;;10.95;30.42;100649.06;5546528;32;34151;-86
2023/04/05 06:55:54;;;;;;;6.65;5.30;;;;;;;11.53;30.10;100643.69;5551160;32;33893;-85
2023/04/05 06:58:58;;;;;;;8.00;5.10;;;;;;;10.59;30.09;100639.22;5556728;32;34126;-85
2023/04/05 07:02:01;;;;;;;5.97;5.12;;;;;;;8.44;32.88;100631.97;5563795;32;34108;-85
2023/04/05 07:05:04;;;;;;;7.03;5.18;;;;;;;9.09;32.74;100631.34;5544847;32;34726;-84
2023/04/05 07:08:07;;;;;;;6.85;4.85;;;;;;;9.20;32.82;100630.94;5545903;32;35069;-85
2023/04/05 07:11:12;;;;;;;6.12;4.93;;;;;;;9.73;31.30;100628.78;5561435;32;34358;-84
2023/04/05 07:14:15;;;;;;;6.50;5.32;;;;;;;9.99;31.03;100630.31;5554899;32;34012;-85
2023/04/05 07:17:17;;;;;;;6.00;4.93;;;;;;;11.09;29.66;100640.47;5545581;32;33867;-84
2023/04/05 07:20:20;;;;;;;8.18;5.18;;;;;;;12.19;28.72;100642.16;5545202;32;34184;-84
2023/04/05 07:23:23;;;;;;;8.88;4.95;;;;;;;12.40;28.53;100642.84;5540270;32;32507;-88
2023/04/05 07:26:26;;;;;;;10.20;5.30;;;;;;;14.66;25.54;100637.94;5555025;32;33607;-88
2023/04/05 07:29:29;;;;;;;6.30;4.80;;;;;;;12.59;26.95;100643.63;5552797;32;33933;-89
2023/04/05 07:32:33;;;;;;;13.40;5.07;;;;;;;14.66;24.72;100642.44;5546323;32;33933;-89
2023/04/05 07:35:36;;;;;;;8.10;5.05;;;;;;;16.81;24.27;100642.44;5544649;32;33921;-85
2023/04/05 07:38:40;;;;;;;6.90;5.28;;;;;;;17.94;21.29;100639.63;5544420;32;34904;-84
2023/04/05 07:41:43;;;;;;;5.97;4.72;;;;;;;16.22;22.29;100630.53;5545174;32;33756;-85
2023/04/05 07:44:46;;;;;;;6.68;5.12;;;;;;;17.69;21.60;100633.47;5547781;32;34642;-84
2023/04/05 07:47:49;;;;;;;6.93;4.68;;;;;;;14.46;22.94;100633.84;5539771;32;34847;-85
2023/04/05 07:50:52;;;;;;;5.47;4.70;;;;;;;15.87;23.08;100640.00;5540746;32;34889;-82
2023/04/05 07:53:55;;;;;;;6.37;4.90;;;;;;;17.19;22.43;100635.28;5549551;32;33772;-85
2023/04/05 08:00:44;;;;;;;6.50;5.00;;;;;;;16.54;22.23;100631.88;5606920;26;20111;-85
2023/04/05 08:03:46;;;;;;;5.05;4.55;;;;;;;17.21;20.91;100632.50;5520268;32;33801;-85
2023/04/05 08:06:49;;;;;;;5.57;4.97;;;;;;;17.29;21.29;100632.78;5515440;32;34423;-86
2023/04/05 08:09:56;;;;;;;6.60;5.05;;;;;;;17.70;21.49;100627.97;5523675;32;33517;-86
2023/04/05 08:12:59;;;;;;;6.93;5.35;;;;;;;17.05;21.79;100622.06;5520536;32;34348;-84
2023/04/05 08:16:02;;;;;;;7.18;4.75;;;;;;;16.32;22.34;100632.53;5522934;32;34139;-84
2023/04/05 08:19:05;;;;;;;8.23;5.65;;;;;;;14.74;23.95;100623.25;5521755;32;33545;-84
2023/04/05 08:22:08;;;;;;;6.70;4.87;;;;;;;13.34;25.35;100611.94;5524517;32;35510;-84
2023/04/05 08:25:10;;;;;;;8.65;5.30;;;;;;;12.85;25.56;100618.25;5527174;32;34524;-84
2023/04/05 08:28:13;;;;;;;8.88;5.78;;;;;;;12.50;27.46;100613.94;5530256;32;35159;-84
2023/04/05 08:31:16;;;;;;;7.25;5.22;;;;;;;11.97;27.70;100614.00;5536254;32;34797;-84
2023/04/05 08:34:19;;;;;;;7.80;4.72;;;;;;;11.56;27.23;100619.63;5525707;32;33784;-84
2023/04/05 08:37:21;;;;;;;7.28;4.95;;;;;;;12.43;27.11;100609.03;5529827;32;34097;-84
2023/04/05 08:40:35;;;;;;;8.15;4.95;;;;;;;11.80;27.64;100621.97;5513622;32;33592;-84
2023/04/05 08:43:57;;;;;;;6.50;5.30;;;;;;;11.69;28.08;100615.44;5513321;32;33421;-84
2023/04/05 08:47:00;;;;;;;5.70;4.70;;;;;;;12.61;26.51;100609.81;5513403;32;33987;-84
2023/04/05 08:50:04;;;;;;;7.95;5.95;;;;;;;11.56;27.82;100617.81;5514350;32;33429;-88
2023/04/05 08:53:09;;;;;;;9.23;6.00;;;;;;;10.78;29.19;100605.59;5516300;32;34793;-89
2023/04/05 08:56:15;;;;;;;7.97;5.55;;;;;;;10.62;28.98;100602.81;5516171;32;34263;-84
2023/04/05 08:59:19;;;;;;;8.30;5.60;;;;;;;11.44;28.90;100605.16;5518623;32;33903;-84
2023/04/05 09:02:23;;;;;;;9.38;5.78;;;;;;;11.19;29.11;100596.63;5519668;32;34661;-84
2023/04/05 09:05:27;;;;;;;7.80;5.55;;;;;;;11.13;30.01;100604.88;5525416;32;33933;-85
2023/04/05 09:08:30;;;;;;;7.68;5.57;;;;;;;11.63;29.45;100593.59;5523288;32;34841;-84
2023/04/05 09:11:34;;;;;;;7.70;5.40;;;;;;;11.42;32.06;100599.06;5524999;32;34758;-84
2023/04/05 09:14:38;;;;;;;8.35;5.72;;;;;;;12.73;29.31;100585.19;5525837;32;33956;-84
2023/04/05 09:17:42;;;;;;;8.35;5.90;;;;;;;12.37;28.28;100592.44;5520799;32;35172;-85
2023/04/05 09:20:45;;;;;;;6.25;5.47;;;;;;;11.98;30.97;100588.28;5519711;32;34041;-85
2023/04/05 09:23:52;;;;;;;6.85;5.82;;;;;;;12.35;30.86;100586.34;5517221;32;34014;-86
2023/04/05 09:27:12;;;;;;;8.55;6.05;;;;;;;12.70;29.32;100593.34;5530416;32;34563;-85
2023/04/05 09:30:21;;;;;;;11.43;5.78;;;;;;;12.06;31.28;100585.25;5536637;32;34006;-85
2023/04/05 09:33:24;;;;;;;7.68;5.35;;;;;;;12.85;32.60;100590.78;5537504;32;34734;-86
2023/04/05 09:36:27;;;;;;;7.35;5.50;;;;;;;12.43;31.50;100585.94;5533272;32;34265;-86
2023/04/05 09:39:31;;;;;;;8.55;5.12;;;;;;;12.19;29.28;100588.97;5523867;32;33884;-84
2023/04/05 09:42:46;;;;;;;8.70;4.97;;;;;;;12.07;27.94;100587.81;5527394;32;34090;-84
2023/04/05 09:45:48;;;;;;;8.27;5.80;;;;;;;12.18;31.08;100578.41;5521763;32;33832;-85
2023/04/05 09:48:51;;;;;;;8.45;6.20;;;;;;;13.19;28.59;100575.56;5519809;32;33822;-85
2023/04/05 09:51:56;;;;;;;6.43;5.53;;;;;;;13.28;27.06;100569.69;5521481;32;34751;-86
2023/04/05 09:55:02;;;;;;;8.73;5.70;;;;;;;13.01;26.87;100567.66;5528089;32;33607;-86
2023/04/05 09:58:10;;;;;;;9.02;6.03;;;;;;;10.76;28.57;100572.97;5514700;32;33375;-85
2023/04/05 10:01:13;;;;;;;8.30;5.70;;;;;;;10.72;29.39;100560.78;5524595;32;34243;-85
2023/04/05 10:04:20;;;;;;;9.88;5.47;;;;;;;11.31;28.54;100562.41;5527692;32;33813;-85
2023/04/05 10:07:22;;;;;;;7.50;5.93;;;;;;;12.02;27.77;100565.03;5532051;32;34138;-85
2023/04/05 10:10:26;;;;;;;7.05;5.60;;;;;;;11.73;28.72;100561.16;5524262;32;33720;-85
2023/04/05 10:13:28;;;;;;;7.80;6.32;;;;;;;12.22;28.68;100558.72;5521172;32;33839;-85
2023/04/05 10:16:35;;;;;;;9.25;7.15;;;;;;;12.49;27.29;100564.31;5522404;32;34015;-86
2023/04/05 10:20:06;;;;;;;8.60;6.20;;;;;;;11.92;28.21;100564.66;5524544;32;34299;-86
2023/04/05 10:23:16;;;;;;;6.12;5.40;;;;;;;14.37;26.06;100563.22;5521404;32;34007;-86
2023/04/05 10:26:30;;;;;;;6.32;5.60;;;;;;;15.28;24.25;100569.03;5539010;32;34072;-86
2023/04/05 10:30:07;;;;;;;7.10;5.30;;;;;;;15.67;23.18;100562.91;5516764;32;34219;-86
2023/04/05 10:33:38;;;;;;;9.60;6.20;;;;;;;14.44;23.52;100553.03;5515708;32;34397;-86
2023/04/05 10:37:00;;;;;;;9.70;5.43;;;;;;;14.38;24.96;100551.59;5521662;32;34678;-85
2023/04/05 10:40:07;;;;;;;8.65;5.95;;;;;;;13.11;25.97;100541.38;5529911;32;33941;-86
2023/04/05 10:43:18;;;;;;;6.72;5.65;;;;;;;12.32;26.53;100543.09;5524091;32;34946;-85
2023/04/05 10:46:21;;;;;;;7.15;5.75;;;;;;;13.37;25.82;100538.13;5518054;32;34720;-86
2023/04/05 10:49:30;;;;;;;7.75;6.85;;;;;;;12.44;26.44;100539.78;5523892;32;34019;-85
2023/04/05 10:52:33;;;;;;;10.88;5.60;;;;;;;10.76;29.44;100549.09;5528547;32;34110;-85
2023/04/05 10:55:37;;;;;;;7.57;5.75;;;;;;;15.28;29.43;100547.66;5527476;32;33942;-89
2023/04/05 10:58:42;;;;;;;8.05;5.78;;;;;;;17.10;22.36;100537.66;5521957;32;33992;-90
2023/04/05 11:01:46;;;;;;;8.70;5.28;;;;;;;18.43;20.46;100538.28;5528052;32;35102;-88
2023/04/05 11:04:58;;;;;;;6.62;5.22;;;;;;;18.04;23.17;100534.12;5525714;32;34683;-88
2023/04/05 11:08:06;;;;;;;7.75;5.87;;;;;;;15.88;22.00;100529.34;5519577;32;33942;-85
2023/04/05 11:11:09;;;;;;;8.02;5.93;;;;;;;13.45;23.77;100523.41;5525023;32;33955;-87
2023/04/05 11:14:21;;;;;;;7.10;5.10;;;;;;;12.49;25.27;100523.53;5525832;32;34250;-85
2023/04/05 11:17:27;;;;;;;7.18;5.60;;;;;;;11.04;27.02;100526.53;5528204;32;34330;-85
2023/04/05 11:20:50;;;;;;;7.80;6.35;;;;;;;11.77;26.52;100524.66;5533404;32;34338;-85
2023/04/05 11:24:02;;;;;;;7.50;5.50;;;;;;;11.37;27.39;100522.25;5543969;32;33826;-85
2023/04/05 11:27:08;;;;;;;6.47;5.68;;;;;;;13.89;24.97;100528.84;5529957;32;34855;-85
2023/04/05 11:30:11;;;;;;;6.95;5.90;;;;;;;13.70;24.13;100526.44;5537646;32;33828;-85
2023/04/05 11:33:36;;;;;;;7.22;5.55;;;;;;;10.90;26.22;100529.00;5532862;32;34809;-86
2023/04/05 11:36:46;;;;;;;6.50;5.37;;;;;;;10.00;27.72;100522.53;5527742;32;35211;-85
2023/04/05 11:40:28;;;;;;;5.50;4.90;;;;;;;10.49;27.17;100522.97;5521833;32;33736;-85
2023/04/05 11:43:37;;;;;;;8.25;5.30;;;;;;;9.62;26.49;100518.00;5528540;32;35326;-90
2023/04/05 11:46:40;;;;;;;7.10;5.35;;;;;;;10.28;27.15;100511.53;5527580;32;35363;-87
2023/04/05 11:49:49;;;;;;;6.85;5.03;;;;;;;9.49;27.76;100513.22;5517570;32;33758;-86
2023/04/05 11:53:09;;;;;;;7.70;5.30;;;;;;;10.57;27.43;100506.66;5509120;32;33615;-85
2023/04/05 11:56:14;;;;;;;7.22;4.75;;;;;;;11.21;26.10;100497.44;5532707;32;34705;-85
2023/04/05 11:59:17;;;;;;;9.15;5.25;;;;;;;11.10;25.74;100504.13;5526869;32;33363;-85
2023/04/05 12:02:21;;;;;;;8.18;5.35;;;;;;;9.40;27.11;100498.59;5515740;32;33934;-85
2023/04/05 12:05:24;;;;;;;6.35;5.12;;;;;;;9.41;28.19;100491.53;5516745;32;34859;-85
2023/04/05 12:08:50;;;;;;;7.97;5.78;;;;;;;9.00;28.54;100489.72;5515390;32;32640;-85
2023/04/05 12:11:54;;;;;;;8.40;5.43;;;;;;;8.73;28.69;100489.91;5520552;32;34179;-84
2023/04/05 12:15:00;;;;;;;8.07;5.05;;;;;;;9.22;28.27;100486.16;5516948;32;34016;-85
2023/04/05 12:18:03;;;;;;;6.57;5.22;;;;;;;9.83;28.36;100487.06;5525114;32;34728;-84
2023/04/05 12:21:08;;;;;;;6.35;5.25;;;;;;;10.04;27.73;100487.00;5521062;32;34668;-84
2023/04/05 12:24:11;;;;;;;6.55;5.57;;;;;;;8.91;28.99;100480.38;5519351;32;34089;-85
2023/04/05 12:27:14;;;;;;;5.70;5.10;;;;;;;9.79;28.55;100475.72;5520031;32;33923;-85
2023/04/05 12:30:22;;;;;;;6.80;4.90;;;;;;;9.10;27.90;100463.72;5522467;32;34354;-85
2023/04/05 12:33:27;;;;;;;6.50;4.85;;;;;;;9.34;27.78;100475.03;5521130;32;33815;-85
2023/04/05 12:36:31;;;;;;;6.57;5.18;;;;;;;9.35;26.12;100471.47;5516256;32;34344;-84
2023/04/05 12:39:34;;;;;;;6.43;5.45;;;;;;;8.80;27.42;100472.84;5521954;32;34407;-85
2023/04/05 12:42:39;;;;;;;7.60;4.72;;;;;;;8.79;27.32;100470.28;5530114;32;34187;-85
2023/04/05 12:45:42;;;;;;;6.97;5.90;;;;;;;9.03;26.06;100463.09;5536636;32;33558;-84
2023/04/05 12:48:49;;;;;;;7.22;5.40;;;;;;;8.87;28.24;100462.88;5528328;32;33588;-85
2023/04/05 12:51:52;;;;;;;6.95;5.57;;;;;;;8.62;28.50;100458.59;5523489;32;34943;-85
2023/04/05 12:54:55;;;;;;;7.32;5.37;;;;;;;8.27;28.98;100458.16;5513179;32;34715;-86
2023/04/05 12:57:59;;;;;;;8.85;5.85;;;;;;;8.32;28.30;100462.38;5519647;32;33808;-85
2023/04/05 13:01:03;;;;;;;7.57;5.20;;;;;;;8.17;29.20;100461.19;5532880;32;33897;-84
2023/04/05 13:04:05;;;;;;;7.10;5.22;;;;;;;8.80;28.97;100448.19;5535590;32;33718;-85
2023/04/05 13:07:18;;;;;;;7.68;5.60;;;;;;;9.05;28.14;100439.22;5530777;32;33723;-89
2023/04/05 13:10:24;;;;;;;7.70;5.70;;;;;;;8.68;28.67;100452.19;5533854;32;34155;-86
2023/04/05 13:13:27;;;;;;;7.45;5.50;;;;;;;9.06;28.80;100443.59;5531732;32;34355;-86
2023/04/05 13:16:30;;;;;;;18.95;6.12;;;;;;;9.14;28.63;100442.34;5530322;32;33834;-86
2023/04/05 13:19:32;;;;;;;8.15;6.00;;;;;;;8.97;28.99;100439.56;5532178;32;34298;-86
2023/04/05 13:22:35;;;;;;;8.07;5.80;;;;;;;9.36;28.74;100440.56;5516026;32;34097;-85
2023/04/05 13:25:40;;;;;;;8.32;6.00;;;;;;;8.98;29.06;100441.25;5527138;32;33932;-85
2023/04/05 13:28:43;;;;;;;8.75;6.05;;;;;;;8.73;29.53;100439.63;5535114;32;33889;-85
2023/04/05 13:31:45;;;;;;;6.95;6.00;;;;;;;8.97;28.83;100435.12;5522288;32;34036;-85
2023/04/05 13:34:48;;;;;;;6.65;5.55;;;;;;;8.67;30.08;100431.97;5529824;32;33749;-85
2023/04/05 13:37:51;;;;;;;7.78;5.60;;;;;;;8.94;29.85;100431.75;5535809;32;34795;-85
2023/04/05 13:40:54;;;;;;;7.55;5.80;;;;;;;9.09;29.73;100435.50;5536080;32;33097;-85
2023/04/05 13:43:57;;;;;;;8.90;5.70;;;;;;;8.45;29.87;100420.44;5538777;32;33982;-84
2023/04/05 13:47:03;;;;;;;8.55;5.85;;;;;;;8.33;30.53;100415.63;5537972;32;35369;-84
2023/04/05 13:50:06;;;;;;;9.25;6.18;;;;;;;8.20;30.30;100418.75;5537525;32;34221;-84
2023/04/05 13:53:09;;;;;;;7.72;6.20;;;;;;;8.22;30.37;100416.06;5542941;32;34399;-84
2023/04/05 13:56:12;;;;;;;9.07;6.30;;;;;;;8.36;31.55;100421.66;5536194;32;34020;-84
2023/04/05 13:59:15;;;;;;;11.27;6.03;;;;;;;8.39;30.29;100422.47;5534910;32;33960;-84
2023/04/05 14:02:24;;;;;;;6.87;5.60;;;;;;;8.58;30.23;100414.69;5533634;32;33489;-85
2023/04/05 14:05:27;;;;;;;7.75;5.87;;;;;;;8.71;30.29;100413.25;5532951;32;34065;-85
2023/04/05 14:08:29;;;;;;;7.32;5.87;;;;;;;9.00;30.48;100411.16;5534422;32;34123;-84
2023/04/05 14:11:33;;;;;;;9.18;6.07;;;;;;;9.14;29.84;100405.28;5531173;32;33971;-84
2023/04/05 14:14:35;;;;;;;8.25;6.12;;;;;;;9.07;29.17;100416.19;5531237;32;33572;-85
2023/04/05 14:17:38;;;;;;;8.50;5.97;;;;;;;8.72;29.62;100415.00;5530912;32;33823;-85
2023/04/05 14:20:41;;;;;;;10.13;6.10;;;;;;;8.65;29.77;100412.66;5533541;32;34262;-85
2023/04/05 14:23:46;;;;;;;8.23;5.93;;;;;;;8.72;29.65;100408.84;5533127;32;33967;-83
2023/04/05 14:26:49;;;;;;;8.32;5.85;;;;;;;9.02;29.98;100404.00;5534040;32;34877;-83
2023/04/05 14:29:55;;;;;;;8.32;5.80;;;;;;;9.28;29.43;100399.41;5534078;32;34139;-83
2023/04/05 14:32:58;;;;;;;8.48;5.70;;;;;;;9.28;29.02;100403.81;5514609;32;34542;-83
2023/04/05 14:36:01;;;;;;;8.80;6.03;;;;;;;8.75;30.42;100406.91;5514769;32;34098;-83
2023/04/05 14:39:04;;;;;;;7.43;5.72;;;;;;;8.71;29.70;100404.47;5514176;32;34021;-84
2023/04/05 14:42:07;;;;;;;6.87;5.60;;;;;;;8.78;30.19;100400.63;5518823;32;34168;-83
2023/04/05 14:45:10;;;;;;;6.90;5.60;;;;;;;8.51;29.90;100406.13;5514883;32;34142;-83
2023/04/05 14:48:13;;;;;;;8.57;5.90;;;;;;;8.41;30.51;100403.00;5515215;32;33954;-83
2023/04/05 14:51:16;;;;;;;7.85;5.50;;;;;;;8.82;29.78;100406.66;5515137;32;33586;-83
2023/04/05 14:54:19;;;;;;;8.60;5.85;;;;;;;8.47;30.19;100402.75;5514942;32;33905;-83
2023/04/05 14:57:21;;;;;;;6.30;5.47;;;;;;;8.28;30.09;100399.97;5515094;32;34175;-83
2023/04/05 15:00:24;;;;;;;6.80;5.80;;;;;;;8.59;30.09;100403.19;5520878;32;33751;-83
2023/04/05 15:03:27;;;;;;;8.65;6.20;;;;;;;8.99;30.58;100404.16;5517043;32;35088;-83
2023/04/05 15:06:32;;;;;;;10.05;5.82;;;;;;;8.28;30.45;100405.25;5515169;32;34400;-83
2023/04/05 15:09:35;;;;;;;8.00;6.12;;;;;;;8.29;30.98;100412.25;5515525;32;33862;-83
2023/04/05 15:12:38;;;;;;;8.32;5.95;;;;;;;8.34;30.91;100405.00;5515060;32;34488;-83
2023/04/05 15:15:41;;;;;;;8.43;6.18;;;;;;;8.18;31.59;100404.75;5514688;32;34631;-87
